Chandlersville, Ohio
Current Conditions -  °F | °C
As of 6:53 AM on Saturday 01 Nov 2014 (Local Time) from KZZV Reporting Station
Haze Haze  
Wind Chill: 37°   Ceiling: 1100
Heat Index: 42°   Visibility: 6mi
Dew Point: 39°   Wind: 9mph
Humidity: 89%   Direction: 10°N
Pressure: 29.98"   Gusts: NA
Location:  39.9°N, 81.83°W
Report Text: KZZV 011053Z AUTO 01008KT 6SM BR OVC011 06/04 A2998 RMK AO2 RAB0954E21 SLP156 P0000 T00560039
Loading
Personal Weather Stations






























Interactive Weather Map
Tropical Storm Tracking
New forecast layout! Learn more

10-Day Weather Forecast

Advertisements
Track Severe Weather on mobile